Time;durP1;ratioP1;P1;durP2;ratioP2;P2;SDS_P1;SDS_P2;PMS_P1;PMS_P2;Temp;Humidity;BMP_temperature;BMP_pressure;BME280_temperature;BME280_humidity;BME280_pressure;Samples;Min_cycle;Max_cycle;Signal;HPM_P1;HPM_P2
2023/09/04 00:01:50;;;;;;;14.35;12.77;;;17.80;83.50;;;;;;4950217;28;20096;-77
2023/09/04 00:04:16;;;;;;;14.65;13.05;;;17.80;83.50;;;;;;4941828;28;20081;-76
2023/09/04 00:06:42;;;;;;;14.02;12.52;;;17.80;83.50;;;;;;4944306;28;20215;-76
2023/09/04 00:09:07;;;;;;;15.25;13.73;;;17.80;83.60;;;;;;4940440;29;20486;-75
2023/09/04 00:11:34;;;;;;;14.05;12.65;;;17.80;83.40;;;;;;4939672;28;20767;-76
2023/09/04 00:14:00;;;;;;;14.68;13.07;;;17.70;83.30;;;;;;4977894;28;20049;-76
2023/09/04 00:16:25;;;;;;;13.15;11.75;;;17.70;83.40;;;;;;4956787;28;20141;-75
2023/09/04 00:18:51;;;;;;;14.57;12.95;;;17.70;83.50;;;;;;4946508;28;20165;-77
2023/09/04 00:21:17;;;;;;;15.55;13.80;;;17.60;83.40;;;;;;4946845;28;20039;-74
2023/09/04 00:23:42;;;;;;;14.30;12.80;;;17.60;83.40;;;;;;4938840;28;20035;-75
2023/09/04 00:26:08;;;;;;;15.60;13.52;;;17.50;83.50;;;;;;4942453;28;20106;-75
2023/09/04 00:28:34;;;;;;;15.68;13.65;;;17.40;83.80;;;;;;4935694;28;20043;-74
2023/09/04 00:31:00;;;;;;;15.85;14.25;;;17.30;84.30;;;;;;4939566;28;20062;-74
2023/09/04 00:33:26;;;;;;;16.10;14.40;;;17.30;84.50;;;;;;4937548;28;20031;-76
2023/09/04 00:35:51;;;;;;;16.33;14.43;;;17.30;84.60;;;;;;4944477;28;20035;-76
2023/09/04 00:38:17;;;;;;;15.90;14.30;;;17.30;84.60;;;;;;4935554;28;20405;-75
2023/09/04 00:40:43;;;;;;;15.73;13.98;;;17.30;84.60;;;;;;4940060;28;20051;-75
2023/09/04 00:43:08;;;;;;;16.58;13.80;;;17.30;84.60;;;;;;4940350;28;20077;-75
2023/09/04 00:45:35;;;;;;;15.48;13.88;;;17.30;84.60;;;;;;4939702;28;20031;-75
2023/09/04 00:48:03;;;;;;;17.48;14.55;;;17.30;84.70;;;;;;4936238;28;20035;-77
2023/09/04 00:50:29;;;;;;;17.08;15.35;;;17.30;84.70;;;;;;4937997;28;20043;-77
2023/09/04 00:52:58;;;;;;;16.77;14.50;;;17.30;84.60;;;;;;4935093;28;20063;-77
2023/09/04 00:55:24;;;;;;;17.50;14.50;;;17.30;84.60;;;;;;4940387;28;20102;-77
2023/09/04 00:57:51;;;;;;;17.00;14.55;;;17.30;84.70;;;;;;4938696;28;20074;-78
2023/09/04 01:00:21;;;;;;;17.10;15.32;;;17.20;84.80;;;;;;4936423;28;20138;-78
2023/09/04 01:02:47;;;;;;;16.95;15.00;;;17.20;85.00;;;;;;4942884;28;20039;-76
2023/09/04 01:05:13;;;;;;;16.48;14.70;;;17.20;84.90;;;;;;4940631;28;20019;-76
2023/09/04 01:07:41;;;;;;;17.30;15.50;;;17.20;85.10;;;;;;4937529;28;20043;-77
2023/09/04 01:10:08;;;;;;;19.95;15.57;;;17.10;85.20;;;;;;4938639;28;20035;-77
2023/09/04 01:12:46;;;;;;;18.80;16.90;;;17.10;85.20;;;;;;4944643;28;20030;-76
2023/09/04 01:15:13;;;;;;;17.73;15.95;;;17.10;85.30;;;;;;4939732;28;20509;-77
2023/09/04 01:17:40;;;;;;;18.98;16.85;;;17.10;85.40;;;;;;4954609;28;20039;-76
2023/09/04 01:20:20;;;;;;;18.90;16.95;;;17.10;85.30;;;;;;4963998;28;20447;-78
2023/09/04 01:22:45;;;;;;;18.52;16.55;;;17.10;85.30;;;;;;4951658;28;20075;-77
2023/09/04 01:25:12;;;;;;;19.38;17.33;;;17.00;85.30;;;;;;4947663;28;20456;-76
2023/09/04 01:27:41;;;;;;;19.13;17.10;;;17.00;85.40;;;;;;4965721;28;20056;-74
2023/09/04 01:30:14;;;;;;;22.98;17.65;;;17.00;85.50;;;;;;4944263;28;20074;-75
2023/09/04 01:32:44;;;;;;;20.23;18.13;;;16.90;85.60;;;;;;4962118;28;20029;-75
2023/09/04 01:35:12;;;;;;;20.02;18.02;;;16.90;85.70;;;;;;4954699;28;20042;-76
2023/09/04 01:37:39;;;;;;;20.10;18.10;;;16.90;85.80;;;;;;4984791;28;20041;-76
2023/09/04 01:40:07;;;;;;;20.25;17.92;;;16.90;85.90;;;;;;4945790;28;20039;-76
2023/09/04 01:42:34;;;;;;;21.05;18.80;;;16.90;85.90;;;;;;4942176;28;20031;-76
2023/09/04 01:45:02;;;;;;;20.73;18.52;;;16.90;85.90;;;;;;4958474;28;20037;-78
2023/09/04 01:47:30;;;;;;;20.70;18.50;;;16.90;85.90;;;;;;4965811;28;20383;-76
2023/09/04 01:49:55;;;;;;;19.80;17.67;;;16.90;85.90;;;;;;4965647;28;20068;-76
2023/09/04 01:52:21;;;;;;;22.25;19.95;;;16.80;86.00;;;;;;4958436;28;20099;-75
2023/09/04 01:54:47;;;;;;;21.65;19.27;;;16.80;86.00;;;;;;4959749;28;20034;-76
2023/09/04 01:57:12;;;;;;;20.42;18.33;;;16.80;86.00;;;;;;4954004;28;20058;-75
2023/09/04 01:59:38;;;;;;;20.73;18.50;;;16.80;86.10;;;;;;4956571;28;20038;-78
2023/09/04 02:02:04;;;;;;;21.25;19.02;;;16.70;86.20;;;;;;4958628;28;20031;-77
2023/09/04 02:04:31;;;;;;;20.88;18.38;;;16.80;86.20;;;;;;4959312;28;20379;-77
2023/09/04 02:06:58;;;;;;;22.45;19.73;;;16.70;86.20;;;;;;4950814;28;20035;-74
2023/09/04 02:09:24;;;;;;;22.70;20.35;;;16.70;86.20;;;;;;4961704;28;20626;-74
2023/09/04 02:11:50;;;;;;;21.98;19.77;;;16.70;86.10;;;;;;4963387;28;20102;-75
2023/09/04 02:14:15;;;;;;;24.60;22.05;;;16.60;86.10;;;;;;4962949;28;20034;-75
2023/09/04 02:16:41;;;;;;;21.80;19.50;;;16.60;86.20;;;;;;4962941;28;20022;-78
2023/09/04 02:19:07;;;;;;;23.85;21.27;;;16.50;86.40;;;;;;4963603;28;20035;-75
2023/09/04 02:21:32;;;;;;;23.05;20.65;;;16.50;86.70;;;;;;4964019;28;20023;-77
2023/09/04 02:23:58;;;;;;;24.90;22.30;;;16.50;86.80;;;;;;4960698;28;20081;-75
2023/09/04 02:26:24;;;;;;;23.77;21.27;;;16.50;87.00;;;;;;4961848;28;20492;-75
2023/09/04 02:28:50;;;;;;;24.27;21.85;;;16.40;86.90;;;;;;4966427;28;20660;-76
2023/09/04 02:31:16;;;;;;;26.20;23.27;;;16.40;86.90;;;;;;4963998;28;20100;-75
2023/09/04 02:33:42;;;;;;;24.95;22.45;;;16.40;87.20;;;;;;4963567;28;20042;-76
2023/09/04 02:36:07;;;;;;;25.52;22.92;;;16.30;87.10;;;;;;4960711;28;20015;-77
2023/09/04 02:38:33;;;;;;;26.48;23.77;;;16.30;87.20;;;;;;4966612;28;20786;-78
2023/09/04 02:40:59;;;;;;;25.83;23.13;;;16.30;87.30;;;;;;4959295;28;20135;-74
2023/09/04 02:43:24;;;;;;;24.75;22.15;;;16.30;87.30;;;;;;4963082;28;20034;-77
2023/09/04 02:45:51;;;;;;;25.70;22.92;;;16.30;87.20;;;;;;4963214;28;20038;-77
2023/09/04 02:48:17;;;;;;;24.70;22.17;;;16.30;87.30;;;;;;4966248;28;20031;-77
2023/09/04 02:50:43;;;;;;;25.40;22.63;;;16.30;87.30;;;;;;4961232;28;20085;-76
2023/09/04 02:53:08;;;;;;;26.08;23.08;;;16.30;87.40;;;;;;4959773;28;20900;-77
2023/09/04 02:55:34;;;;;;;26.77;23.88;;;16.20;87.30;;;;;;4955882;28;20535;-77
2023/09/04 02:58:00;;;;;;;28.20;24.88;;;16.20;87.30;;;;;;4962744;28;20035;-78
2023/09/04 03:00:25;;;;;;;26.83;24.02;;;16.10;87.30;;;;;;4958330;28;20035;-77
2023/09/04 03:02:51;;;;;;;27.67;24.30;;;16.10;87.40;;;;;;4966040;28;20122;-76
2023/09/04 03:05:17;;;;;;;26.98;24.05;;;16.10;87.50;;;;;;4964837;28;20031;-77
2023/09/04 03:07:43;;;;;;;28.20;25.17;;;16.10;87.60;;;;;;4964370;28;20047;-77
2023/09/04 03:10:09;;;;;;;26.98;24.13;;;16.10;87.50;;;;;;4965308;28;20034;-77
2023/09/04 03:12:35;;;;;;;27.23;24.33;;;16.10;87.50;;;;;;4961509;28;20734;-76
2023/09/04 03:15:06;;;;;;;26.45;23.65;;;16.00;87.50;;;;;;4961820;28;20034;-78
2023/09/04 03:17:33;;;;;;;26.67;23.88;;;16.00;87.60;;;;;;4966638;28;20608;-76
2023/09/04 03:19:59;;;;;;;27.98;25.00;;;16.00;87.60;;;;;;4962414;28;20038;-77
2023/09/04 03:22:26;;;;;;;28.15;25.15;;;16.10;87.60;;;;;;4958460;28;20121;-77
2023/09/04 03:24:53;;;;;;;28.30;25.48;;;16.00;87.70;;;;;;4968230;28;20041;-76
2023/09/04 03:27:19;;;;;;;29.05;26.00;;;16.00;87.70;;;;;;4958313;28;20627;-75
2023/09/04 03:29:45;;;;;;;28.25;25.45;;;15.90;87.70;;;;;;4963183;28;20053;-75
2023/09/04 03:32:12;;;;;;;29.60;26.38;;;15.90;87.80;;;;;;4959771;28;20054;-75
2023/09/04 03:34:38;;;;;;;29.25;26.30;;;15.90;88.00;;;;;;4962634;28;20031;-76
2023/09/04 03:37:04;;;;;;;28.77;25.65;;;15.90;88.00;;;;;;4964158;28;20031;-75
2023/09/04 03:39:34;;;;;;;31.48;28.05;;;15.90;88.00;;;;;;4959207;28;20034;-75
2023/09/04 03:42:00;;;;;;;28.55;25.60;;;15.90;88.00;;;;;;4959665;28;20062;-75
2023/09/04 03:44:26;;;;;;;30.75;27.58;;;15.80;88.10;;;;;;4962529;28;20480;-75
2023/09/04 03:46:52;;;;;;;31.15;27.85;;;15.80;88.20;;;;;;4953317;28;20055;-76
2023/09/04 03:49:17;;;;;;;31.48;28.00;;;15.80;88.20;;;;;;4959991;28;20083;-75
2023/09/04 03:51:44;;;;;;;31.35;28.05;;;15.80;88.20;;;;;;4960745;28;20446;-75
2023/09/04 03:54:09;;;;;;;31.48;28.17;;;15.80;88.20;;;;;;4963808;28;20019;-75
2023/09/04 03:56:35;;;;;;;30.27;26.90;;;15.80;88.30;;;;;;4959304;28;20377;-75
2023/09/04 03:59:01;;;;;;;29.63;26.50;;;15.80;88.30;;;;;;4956121;28;20046;-75
2023/09/04 04:01:28;;;;;;;31.90;28.17;;;15.70;88.40;;;;;;4960043;28;20389;-76
2023/09/04 04:03:53;;;;;;;31.55;28.35;;;15.70;88.50;;;;;;4964398;28;20051;-76
2023/09/04 04:06:22;;;;;;;30.25;27.05;;;15.70;88.50;;;;;;4960460;28;20871;-76
2023/09/04 04:08:50;;;;;;;30.35;27.10;;;15.60;88.40;;;;;;4962146;28;20091;-77
2023/09/04 04:11:16;;;;;;;29.98;26.73;;;15.70;88.60;;;;;;4959042;28;20118;-76
2023/09/04 04:13:41;;;;;;;28.50;25.50;;;15.70;88.60;;;;;;4962787;28;20295;-77
2023/09/04 04:16:07;;;;;;;30.45;27.35;;;15.70;88.60;;;;;;4962382;28;20629;-78
2023/09/04 04:18:33;;;;;;;30.17;27.00;;;15.60;88.60;;;;;;4961714;28;20039;-75
2023/09/04 04:20:59;;;;;;;32.38;27.92;;;15.60;88.50;;;;;;4960990;28;20026;-77
2023/09/04 04:23:25;;;;;;;30.55;27.35;;;15.60;88.60;;;;;;4957898;28;20042;-76
2023/09/04 04:25:51;;;;;;;33.53;29.10;;;15.60;88.50;;;;;;4960928;28;20035;-75
2023/09/04 04:28:20;;;;;;;32.08;28.77;;;15.50;88.50;;;;;;4961539;28;20088;-76
2023/09/04 04:30:46;;;;;;;32.75;28.33;;;15.40;88.70;;;;;;4958829;28;20033;-76
2023/09/04 04:33:12;;;;;;;34.08;30.42;;;15.40;88.90;;;;;;4965877;28;20107;-77
2023/09/04 04:35:41;;;;;;;33.33;29.60;;;15.40;89.20;;;;;;4957886;28;20482;-77
2023/09/04 04:38:07;;;;;;;35.58;31.67;;;15.30;89.40;;;;;;4962116;28;20079;-75
2023/09/04 04:40:33;;;;;;;35.47;31.13;;;15.30;89.50;;;;;;4965528;28;20041;-75
2023/09/04 04:42:59;;;;;;;32.75;29.25;;;15.30;89.50;;;;;;4966050;28;20039;-77
2023/09/04 04:45:25;;;;;;;33.47;29.80;;;15.30;89.50;;;;;;4966600;28;20035;-76
2023/09/04 04:47:50;;;;;;;32.40;28.48;;;15.30;89.60;;;;;;4951680;28;20070;-76
2023/09/04 04:50:16;;;;;;;33.13;29.52;;;15.30;89.60;;;;;;4936381;28;20058;-76
2023/09/04 04:52:42;;;;;;;33.58;30.05;;;15.30;89.60;;;;;;4941511;28;20039;-76
2023/09/04 04:55:09;;;;;;;35.50;30.42;;;15.30;89.50;;;;;;4940851;28;20105;-75
2023/09/04 04:57:35;;;;;;;33.70;30.15;;;15.30;89.50;;;;;;4951085;28;20039;-78
2023/09/04 05:00:06;;;;;;;32.45;29.02;;;15.30;89.30;;;;;;4946092;28;20035;-77
2023/09/04 05:02:35;;;;;;;33.03;27.75;;;15.30;89.30;;;;;;4946796;28;20578;-76
2023/09/04 05:05:01;;;;;;;33.33;28.65;;;15.20;89.30;;;;;;4957131;28;20023;-76
2023/09/04 05:07:29;;;;;;;34.67;28.58;;;15.20;89.40;;;;;;4957154;28;20047;-76
2023/09/04 05:09:55;;;;;;;32.20;27.90;;;15.20;89.30;;;;;;4963395;28;20057;-76
2023/09/04 05:12:21;;;;;;;32.38;28.88;;;15.20;89.20;;;;;;4970907;28;20851;-76
2023/09/04 05:14:47;;;;;;;33.17;27.90;;;15.20;89.30;;;;;;4965199;28;20491;-76
2023/09/04 05:17:13;;;;;;;34.08;30.38;;;15.20;89.40;;;;;;4962492;28;20039;-76
2023/09/04 05:19:38;;;;;;;34.38;30.65;;;15.30;89.30;;;;;;4941707;28;20343;-75
2023/09/04 05:22:04;;;;;;;34.95;30.98;;;15.20;89.40;;;;;;4941587;28;20116;-75
2023/09/04 05:24:30;;;;;;;33.95;29.60;;;15.30;89.30;;;;;;4940508;28;20505;-76
2023/09/04 05:26:56;;;;;;;33.00;29.30;;;15.30;89.30;;;;;;4937354;28;20074;-76
2023/09/04 05:29:21;;;;;;;32.80;29.30;;;15.30;89.40;;;;;;4938492;28;20046;-75
2023/09/04 05:31:51;;;;;;;35.88;30.27;;;15.30;89.30;;;;;;4937465;28;20031;-73
2023/09/04 05:34:17;;;;;;;38.85;31.13;;;15.30;89.40;;;;;;4941223;28;20066;-72
2023/09/04 05:36:42;;;;;;;34.30;29.42;;;15.40;89.30;;;;;;4938794;28;20777;-72
2023/09/04 05:39:09;;;;;;;36.03;28.60;;;15.40;89.30;;;;;;4959348;28;20085;-73
2023/09/04 05:41:36;;;;;;;35.15;29.42;;;15.40;89.20;;;;;;4963469;28;20035;-74
2023/09/04 05:44:01;;;;;;;36.25;30.90;;;15.50;89.10;;;;;;4965921;28;20034;-73
2023/09/04 05:46:28;;;;;;;33.80;29.70;;;15.50;89.00;;;;;;4959510;28;20031;-73
2023/09/04 05:48:53;;;;;;;34.97;28.77;;;15.50;88.90;;;;;;4964304;28;20038;-73
2023/09/04 05:51:19;;;;;;;33.58;28.65;;;15.50;88.90;;;;;;4955084;28;20030;-73
2023/09/04 05:53:44;;;;;;;32.65;28.98;;;15.50;88.90;;;;;;4961746;28;20046;-73
2023/09/04 05:56:11;;;;;;;34.40;30.52;;;15.60;88.90;;;;;;4962952;28;20575;-73
2023/09/04 05:58:48;;;;;;;35.17;31.23;;;15.60;88.80;;;;;;4959134;28;20034;-74
2023/09/04 06:01:15;;;;;;;36.00;30.58;;;15.60;88.80;;;;;;4958448;28;20023;-74
2023/09/04 06:03:41;;;;;;;34.03;29.30;;;15.60;88.60;;;;;;4967187;28;20088;-74
2023/09/04 06:06:07;;;;;;;33.65;29.88;;;15.60;88.50;;;;;;4963682;28;20536;-74
2023/09/04 06:08:33;;;;;;;33.33;29.70;;;15.70;88.60;;;;;;4961799;28;20050;-73
2023/09/04 06:10:59;;;;;;;37.33;30.58;;;15.70;88.60;;;;;;4958944;28;20077;-74
2023/09/04 06:13:25;;;;;;;34.88;28.42;;;15.70;88.40;;;;;;4939514;28;20039;-75
2023/09/04 06:15:51;;;;;;;34.67;28.23;;;15.80;88.50;;;;;;4939428;28;20062;-75
2023/09/04 06:18:19;;;;;;;36.42;29.10;;;15.80;88.40;;;;;;4952578;28;20043;-74
2023/09/04 06:20:47;;;;;;;34.63;29.10;;;15.90;88.40;;;;;;4960817;28;20033;-74
2023/09/04 06:23:13;;;;;;;32.10;28.58;;;15.90;88.20;;;;;;4949167;28;20470;-74
2023/09/04 06:25:41;;;;;;;33.38;28.38;;;16.00;88.20;;;;;;4955968;28;20040;-74
2023/09/04 06:28:08;;;;;;;33.58;28.77;;;16.10;88.20;;;;;;4936630;28;20484;-74
2023/09/04 06:30:34;;;;;;;32.13;28.55;;;16.10;88.00;;;;;;4938291;28;20039;-74
2023/09/04 06:33:00;;;;;;;33.25;29.70;;;16.10;87.90;;;;;;4947560;28;20039;-74
2023/09/04 06:35:26;;;;;;;32.13;28.73;;;16.20;88.00;;;;;;4955527;28;20033;-74
2023/09/04 06:37:51;;;;;;;35.17;28.30;;;16.30;87.80;;;;;;5001652;28;20040;-74
2023/09/04 06:40:17;;;;;;;32.17;28.67;;;16.40;87.50;;;;;;5032884;28;20029;-74
2023/09/04 06:42:43;;;;;;;31.02;27.65;;;16.50;87.40;;;;;;5013071;28;20079;-74
2023/09/04 06:45:09;;;;;;;31.83;27.92;;;16.60;87.20;;;;;;4952862;28;20138;-74
2023/09/04 06:47:35;;;;;;;32.40;28.90;;;16.50;86.90;;;;;;4978747;28;20042;-74
2023/09/04 06:50:03;;;;;;;29.45;26.25;;;16.60;86.90;;;;;;4942525;28;20023;-74
2023/09/04 06:52:29;;;;;;;31.73;28.40;;;16.70;87.00;;;;;;4944806;28;20042;-74
2023/09/04 06:54:55;;;;;;;30.52;27.25;;;16.80;86.60;;;;;;4938953;28;20058;-74
2023/09/04 06:57:20;;;;;;;31.15;27.25;;;16.90;86.50;;;;;;4951451;28;20085;-76
2023/09/04 06:59:46;;;;;;;32.03;27.77;;;17.00;86.20;;;;;;4963762;28;20101;-75
2023/09/04 07:02:12;;;;;;;27.27;24.42;;;17.10;85.80;;;;;;4965916;28;20055;-76
2023/09/04 07:04:37;;;;;;;28.60;25.52;;;17.30;85.70;;;;;;4945937;28;20030;-76
2023/09/04 07:07:03;;;;;;;27.48;24.52;;;17.50;85.30;;;;;;4942438;28;20481;-74
2023/09/04 07:09:29;;;;;;;29.55;26.35;;;17.60;84.80;;;;;;4951712;28;20702;-75
2023/09/04 07:11:55;;;;;;;27.60;23.60;;;17.80;84.10;;;;;;4948224;28;20043;-74
2023/09/04 07:14:21;;;;;;;25.80;23.17;;;17.90;83.70;;;;;;4944143;28;20035;-76
2023/09/04 07:16:46;;;;;;;30.15;24.92;;;18.00;83.70;;;;;;4944667;28;20111;-75
2023/09/04 07:19:12;;;;;;;27.50;24.20;;;18.20;83.00;;;;;;4950243;28;20405;-75
2023/09/04 07:21:40;;;;;;;26.58;23.73;;;18.40;82.60;;;;;;4953932;28;20444;-76
2023/09/04 07:24:06;;;;;;;27.65;24.50;;;18.60;82.20;;;;;;4948292;28;20031;-74
2023/09/04 07:26:31;;;;;;;25.55;22.35;;;18.70;81.70;;;;;;4950271;28;20084;-75
2023/09/04 07:28:57;;;;;;;24.90;21.67;;;18.80;81.80;;;;;;4949004;28;20478;-75
2023/09/04 07:31:23;;;;;;;36.83;23.63;;;19.10;80.90;;;;;;4947360;28;20086;-75
2023/09/04 07:33:50;;;;;;;24.15;20.27;;;19.20;80.00;;;;;;4947334;28;20058;-76
2023/09/04 07:36:16;;;;;;;27.73;22.10;;;19.50;80.30;;;;;;4945774;28;20019;-74
2023/09/04 07:38:44;;;;;;;22.02;19.67;;;19.60;79.20;;;;;;4942564;28;20047;-75
2023/09/04 07:41:10;;;;;;;22.55;20.17;;;19.70;78.50;;;;;;4960922;28;20034;-75
2023/09/04 07:43:36;;;;;;;23.08;20.17;;;20.00;78.20;;;;;;4945775;28;20039;-74
2023/09/04 07:46:02;;;;;;;22.40;19.45;;;20.20;77.50;;;;;;4946940;28;20064;-75
2023/09/04 07:48:29;;;;;;;22.23;19.05;;;20.30;75.90;;;;;;4941886;28;20153;-74
2023/09/04 07:50:56;;;;;;;20.05;17.70;;;20.50;77.10;;;;;;4943462;28;20092;-76
2023/09/04 07:53:23;;;;;;;21.17;17.95;;;20.60;76.30;;;;;;4939682;28;20035;-75
2023/09/04 07:55:51;;;;;;;17.77;15.88;;;20.70;75.00;;;;;;4939813;28;20047;-74
2023/09/04 07:58:17;;;;;;;17.67;15.85;;;20.90;75.70;;;;;;4945775;28;20131;-75
2023/09/04 08:00:45;;;;;;;19.38;17.27;;;21.10;75.10;;;;;;4940442;28;20118;-75
2023/09/04 08:03:11;;;;;;;20.33;17.70;;;21.30;74.20;;;;;;4941071;28;20116;-77
2023/09/04 08:05:37;;;;;;;18.50;15.88;;;21.30;73.70;;;;;;4942388;28;20049;-76
2023/09/04 08:08:08;;;;;;;20.30;16.23;;;21.40;74.70;;;;;;4942742;28;20035;-74
2023/09/04 08:10:39;;;;;;;18.90;15.75;;;21.60;72.70;;;;;;4944488;28;20031;-73
2023/09/04 08:13:08;;;;;;;18.88;16.60;;;21.40;73.10;;;;;;4942760;28;20039;-73
2023/09/04 08:15:34;;;;;;;17.00;15.20;;;21.50;73.60;;;;;;4945174;28;20023;-75
2023/09/04 08:18:01;;;;;;;18.08;15.32;;;21.70;74.20;;;;;;4944052;28;20088;-73
2023/09/04 08:20:27;;;;;;;20.00;13.65;;;21.90;73.00;;;;;;4942348;28;20093;-74
2023/09/04 08:22:53;;;;;;;17.70;13.73;;;22.10;73.20;;;;;;4951560;28;20046;-75
2023/09/04 08:25:19;;;;;;;16.05;13.43;;;22.20;71.90;;;;;;4963192;28;20037;-75
2023/09/04 08:27:45;;;;;;;14.57;12.40;;;22.20;71.80;;;;;;5006382;28;20092;-74
2023/09/04 08:30:11;;;;;;;18.58;13.57;;;22.40;71.50;;;;;;5042411;28;20033;-74
2023/09/04 08:32:37;;;;;;;15.32;12.75;;;22.60;69.90;;;;;;5003218;28;20026;-74
2023/09/04 08:35:04;;;;;;;15.95;13.27;;;22.80;70.00;;;;;;4962363;28;20026;-75
2023/09/04 08:37:30;;;;;;;13.88;11.95;;;22.90;69.00;;;;;;4960693;28;20054;-75
2023/09/04 08:39:56;;;;;;;15.25;12.93;;;23.10;68.50;;;;;;4968249;28;20325;-74
2023/09/04 08:42:22;;;;;;;17.80;12.80;;;23.40;68.30;;;;;;4969614;28;20050;-74
2023/09/04 08:44:50;;;;;;;14.80;12.48;;;23.50;67.00;;;;;;4963828;28;20043;-76
2023/09/04 08:47:19;;;;;;;14.90;13.15;;;23.60;67.20;;;;;;4960559;28;20705;-76
2023/09/04 08:49:45;;;;;;;15.60;11.80;;;23.80;66.30;;;;;;4954843;28;20066;-76
2023/09/04 08:52:15;;;;;;;12.90;11.18;;;24.00;66.60;;;;;;4962242;28;20080;-77
2023/09/04 08:54:41;;;;;;;17.30;12.70;;;24.10;66.00;;;;;;4972812;28;20022;-77
2023/09/04 08:57:10;;;;;;;14.45;11.32;;;24.10;64.20;;;;;;4960099;28;20394;-77
2023/09/04 08:59:36;;;;;;;14.68;12.02;;;24.10;65.90;;;;;;4959788;28;20528;-76
2023/09/04 09:02:05;;;;;;;15.48;12.25;;;24.30;65.30;;;;;;4956799;28;20058;-75
2023/09/04 09:04:32;;;;;;;12.48;11.05;;;24.50;64.90;;;;;;4963710;28;20031;-75
2023/09/04 09:06:59;;;;;;;12.38;10.95;;;24.60;65.90;;;;;;4957326;28;20059;-75
2023/09/04 09:09:25;;;;;;;11.18;7.95;;;24.40;63.00;;;;;;4957598;28;20031;-75
2023/09/04 09:11:54;;;;;;;12.88;10.80;;;24.60;64.50;;;;;;4956807;28;20059;-75
2023/09/04 09:14:29;;;;;;;13.80;9.15;;;24.60;63.60;;;;;;4957917;28;20606;-74
2023/09/04 09:17:08;;;;;;;12.85;9.10;;;24.80;63.20;;;;;;4956644;28;20036;-75
2023/09/04 09:19:35;;;;;;;11.20;7.88;;;24.90;63.10;;;;;;4949817;28;20043;-75
2023/09/04 09:22:18;;;;;;;11.32;8.60;;;25.10;62.80;;;;;;4956948;28;20055;-74
2023/09/04 09:24:48;;;;;;;9.55;7.03;;;25.20;61.80;;;;;;4943106;28;20062;-75
2023/09/04 09:27:14;;;;;;;11.15;9.10;;;25.50;61.80;;;;;;4952582;28;20051;-75
2023/09/04 09:29:40;;;;;;;10.45;8.35;;;25.50;60.00;;;;;;4943718;28;20030;-75
2023/09/04 09:32:06;;;;;;;11.77;8.07;;;25.60;60.70;;;;;;4941020;28;20047;-75
2023/09/04 09:34:34;;;;;;;10.88;8.07;;;25.40;59.70;;;;;;4940180;28;20401;-75
2023/09/04 09:37:00;;;;;;;10.77;7.60;;;25.60;60.10;;;;;;4963445;28;20103;-75
2023/09/04 09:39:29;;;;;;;10.15;7.47;;;25.80;60.80;;;;;;5040986;28;20086;-76
2023/09/04 09:41:58;;;;;;;11.27;7.00;;;25.80;59.30;;;;;;5027338;28;20042;-74
2023/09/04 09:44:30;;;;;;;9.52;7.38;;;26.00;59.50;;;;;;4942020;28;20106;-75
2023/09/04 09:46:56;;;;;;;10.77;7.07;;;26.10;59.40;;;;;;4945250;28;20031;-75
2023/09/04 09:49:22;;;;;;;9.40;7.13;;;26.10;58.60;;;;;;4946880;28;20492;-74
2023/09/04 09:51:54;;;;;;;8.57;7.00;;;26.00;59.00;;;;;;4939414;28;20055;-73
2023/09/04 09:54:36;;;;;;;10.10;7.47;;;25.70;59.90;;;;;;4943635;28;20114;-74
2023/09/04 09:57:03;;;;;;;10.55;7.40;;;25.90;60.30;;;;;;4944152;28;20330;-75
2023/09/04 09:59:32;;;;;;;9.32;6.60;;;26.00;59.50;;;;;;4939653;28;20036;-75
2023/09/04 10:02:00;;;;;;;8.30;6.53;;;26.00;60.10;;;;;;4943642;28;20035;-75
2023/09/04 10:04:28;;;;;;;10.93;7.72;;;26.10;59.20;;;;;;4940040;28;20036;-75
2023/09/04 10:06:56;;;;;;;10.20;7.22;;;26.10;57.90;;;;;;4939321;28;20153;-75
2023/09/04 10:09:23;;;;;;;10.50;7.72;;;25.80;58.40;;;;;;4940093;28;20027;-76
2023/09/04 10:12:11;;;;;;;9.35;5.97;;;25.70;58.70;;;;;;4943459;28;20036;-75
2023/09/04 10:14:41;;;;;;;10.52;7.07;;;25.80;59.60;;;;;;4957156;28;20023;-75
2023/09/04 10:17:16;;;;;;;8.68;6.18;;;25.80;58.80;;;;;;4964293;28;20039;-75
2023/09/04 10:19:43;;;;;;;9.05;5.72;;;26.00;58.40;;;;;;4960950;28;20119;-76
2023/09/04 10:22:22;;;;;;;9.85;6.00;;;26.10;58.40;;;;;;4959903;28;20628;-74
2023/09/04 10:25:04;;;;;;;8.70;6.15;;;26.20;58.70;;;;;;4956720;28;20030;-75
2023/09/04 10:27:34;;;;;;;7.53;5.47;;;26.20;57.80;;;;;;4958392;28;20046;-76
2023/09/04 10:30:05;;;;;;;8.40;5.93;;;26.20;58.20;;;;;;4964856;28;20031;-74
2023/09/04 10:32:31;;;;;;;7.07;4.95;;;26.40;57.50;;;;;;4959719;28;20039;-75
2023/09/04 10:34:57;;;;;;;9.02;5.53;;;26.50;58.10;;;;;;4961375;28;20023;-75
2023/09/04 10:37:26;;;;;;;7.85;5.70;;;26.50;57.60;;;;;;4962809;28;20050;-77
2023/09/04 10:39:53;;;;;;;9.40;5.40;;;26.50;55.60;;;;;;4969127;28;20034;-75
2023/09/04 10:42:20;;;;;;;8.23;5.25;;;26.60;56.90;;;;;;4961924;28;20050;-75
2023/09/04 10:44:53;;;;;;;8.13;5.38;;;26.70;55.70;;;;;;4964110;28;20028;-73
2023/09/04 10:47:19;;;;;;;7.68;5.40;;;26.90;56.90;;;;;;4960565;28;20035;-73
2023/09/04 10:49:46;;;;;;;8.27;5.22;;;27.00;55.60;;;;;;4959681;28;20069;-73
2023/09/04 10:52:13;;;;;;;9.68;5.80;;;27.10;56.80;;;;;;4960550;28;20089;-75
2023/09/04 10:54:39;;;;;;;7.38;5.00;;;27.10;56.40;;;;;;4963193;28;20121;-75
2023/09/04 10:57:07;;;;;;;8.23;5.60;;;27.00;55.80;;;;;;4962984;28;20062;-73
2023/09/04 10:59:55;;;;;;;8.65;5.78;;;27.10;55.80;;;;;;4962260;28;20030;-74
2023/09/04 11:02:28;;;;;;;7.82;5.18;;;27.00;56.20;;;;;;4966440;28;20038;-74
2023/09/04 11:04:54;;;;;;;9.60;5.43;;;26.70;55.00;;;;;;4975708;28;20430;-75
2023/09/04 11:07:20;;;;;;;7.25;4.97;;;26.70;55.70;;;;;;4964056;28;20034;-75
2023/09/04 11:09:53;;;;;;;10.82;5.38;;;26.70;56.60;;;;;;4974522;28;20031;-74
2023/09/04 11:12:20;;;;;;;8.98;5.72;;;27.10;55.80;;;;;;4959380;28;20582;-74
2023/09/04 11:14:47;;;;;;;7.30;4.70;;;27.40;56.80;;;;;;4964182;28;20051;-74
2023/09/04 11:17:16;;;;;;;7.90;5.10;;;27.40;54.20;;;;;;4964911;28;20038;-75
2023/09/04 11:19:42;;;;;;;7.30;5.00;;;27.10;54.70;;;;;;4962752;28;20027;-75
2023/09/04 11:22:21;;;;;;;6.93;4.70;;;27.20;55.30;;;;;;4960301;28;20381;-75
2023/09/04 11:24:47;;;;;;;6.78;4.57;;;27.40;55.60;;;;;;4957350;28;20024;-75
2023/09/04 11:27:13;;;;;;;6.28;3.88;;;27.40;53.90;;;;;;4968049;28;20054;-74
2023/09/04 11:29:38;;;;;;;7.00;3.97;;;27.50;52.70;;;;;;4961755;28;20882;-75
2023/09/04 11:32:07;;;;;;;8.00;4.97;;;27.60;51.50;;;;;;4956760;28;20050;-75
2023/09/04 11:34:32;;;;;;;8.80;5.00;;;27.70;52.50;;;;;;4963355;28;20584;-75
2023/09/04 11:36:58;;;;;;;7.07;4.35;;;27.70;53.70;;;;;;4963240;28;20043;-74
2023/09/04 11:39:23;;;;;;;7.13;4.13;;;27.60;53.50;;;;;;4962300;28;20059;-75
2023/09/04 11:41:52;;;;;;;6.22;3.70;;;27.60;51.80;;;;;;4968699;28;20539;-75
2023/09/04 11:44:18;;;;;;;6.55;3.80;;;27.80;50.70;;;;;;4956510;28;20066;-75
2023/09/04 11:46:44;;;;;;;6.10;4.20;;;27.90;50.50;;;;;;4963476;28;20139;-75
2023/09/04 11:49:10;;;;;;;8.85;4.30;;;27.70;50.10;;;;;;4961731;28;20203;-75
2023/09/04 11:51:36;;;;;;;7.05;3.95;;;27.70;51.80;;;;;;4962179;28;20602;-76
2023/09/04 11:54:06;;;;;;;9.48;4.05;;;27.80;52.00;;;;;;4963744;28;20030;-76
2023/09/04 11:56:32;;;;;;;9.38;4.80;;;27.70;51.00;;;;;;4969049;28;20046;-75
2023/09/04 11:58:58;;;;;;;5.93;3.95;;;27.50;51.40;;;;;;4970343;28;20045;-74
2023/09/04 12:01:25;;;;;;;6.55;3.70;;;27.50;51.40;;;;;;4963156;28;20027;-77
2023/09/04 12:03:53;;;;;;;7.45;4.28;;;27.70;51.70;;;;;;4968433;28;20034;-76
2023/09/04 12:06:19;;;;;;;6.72;3.70;;;27.80;50.40;;;;;;4962312;28;20023;-77
2023/09/04 12:08:45;;;;;;;5.88;3.67;;;28.00;49.60;;;;;;4966050;28;20133;-76
2023/09/04 12:11:11;;;;;;;6.78;3.97;;;28.20;49.90;;;;;;4961114;28;20045;-76
2023/09/04 12:13:36;;;;;;;5.35;3.50;;;28.30;49.80;;;;;;4961993;28;20039;-76
2023/09/04 12:16:07;;;;;;;6.57;4.05;;;28.50;49.80;;;;;;4963862;28;20031;-74
2023/09/04 12:18:37;;;;;;;6.65;3.70;;;28.30;46.70;;;;;;4962721;28;20039;-73
2023/09/04 12:21:08;;;;;;;5.97;3.20;;;28.00;48.30;;;;;;4962416;28;20114;-75
2023/09/04 12:23:40;;;;;;;6.15;3.30;;;28.20;46.90;;;;;;4955041;28;20042;-76
2023/09/04 12:26:05;;;;;;;6.43;3.50;;;28.50;45.60;;;;;;4963287;28;20102;-77
2023/09/04 12:28:31;;;;;;;7.15;3.88;;;28.70;45.50;;;;;;4963752;28;20135;-76
2023/09/04 12:30:57;;;;;;;5.68;3.05;;;28.80;45.00;;;;;;4961343;28;20367;-76